Time;durP1;ratioP1;P1;durP2;ratioP2;P2;SDS_P1;SDS_P2;PMS_P1;PMS_P2;Temp;Humidity;BMP_temperature;BMP_pressure;BME280_temperature;BME280_humidity;BME280_pressure;Samples;Min_cycle;Max_cycle;Signal;HPM_P1;HPM_P2
2021/03/07 00:01:43;;;;;;;15.05;6.22;;;;;;;2.51;47.12;95983.19;5095225;28;20198;-78
2021/03/07 00:04:09;;;;;;;8.50;5.82;;;;;;;2.49;47.84;95984.09;5095718;28;20668;-77
2021/03/07 00:06:36;;;;;;;8.00;5.13;;;;;;;2.43;48.35;95994.66;5060588;28;20216;-77
2021/03/07 00:09:02;;;;;;;10.32;7.03;;;;;;;2.51;48.19;95985.78;5095177;28;20258;-79
2021/03/07 00:11:29;;;;;;;8.10;6.78;;;;;;;2.45;47.75;95987.69;5095407;28;20200;-78
2021/03/07 00:13:55;;;;;;;10.07;6.57;;;;;;;2.34;48.29;95988.97;5095312;28;20191;-78
2021/03/07 00:16:22;;;;;;;8.85;5.78;;;;;;;2.39;48.59;96000.03;5095374;28;20205;-78
2021/03/07 00:18:49;;;;;;;9.52;5.30;;;;;;;2.30;48.96;96001.16;5043230;28;20235;-78
2021/03/07 00:21:15;;;;;;;10.43;6.55;;;;;;;2.27;48.88;95992.66;5095100;28;20186;-78
2021/03/07 00:23:42;;;;;;;8.85;6.47;;;;;;;2.28;49.13;95992.59;5059534;28;20197;-77
2021/03/07 00:26:08;;;;;;;7.38;6.18;;;;;;;2.30;49.11;95988.22;5094761;28;20225;-78
2021/03/07 00:28:35;;;;;;;7.40;6.00;;;;;;;2.35;49.30;95969.94;5094876;28;20216;-78
2021/03/07 00:31:01;;;;;;;5.88;5.13;;;;;;;2.38;48.98;95981.03;5094631;28;20252;-79
2021/03/07 00:33:28;;;;;;;12.35;7.07;;;;;;;2.41;49.13;95982.69;5094723;28;20602;-77
2021/03/07 00:35:55;;;;;;;9.95;6.22;;;;;;;2.26;48.60;95971.09;5094686;28;20205;-78
2021/03/07 00:38:21;;;;;;;7.47;5.45;;;;;;;2.26;48.51;95981.47;5095190;28;20221;-78
2021/03/07 00:40:48;;;;;;;6.63;5.80;;;;;;;2.26;48.46;95981.47;5094301;28;20193;-78
2021/03/07 00:43:14;;;;;;;9.23;6.82;;;;;;;2.27;48.77;95983.16;5094802;28;20202;-78
2021/03/07 00:45:41;;;;;;;9.98;6.05;;;;;;;2.32;48.24;95983.00;5094704;28;20284;-78
2021/03/07 00:48:08;;;;;;;7.50;5.30;;;;;;;2.30;48.63;95975.25;5095313;28;20205;-78
2021/03/07 00:50:36;;;;;;;10.35;4.75;;;;;;;2.21;48.83;95978.19;5095573;28;20204;-78
2021/03/07 00:53:02;;;;;;;8.90;5.95;;;;;;;2.15;48.83;95968.91;5095275;28;20209;-78
2021/03/07 00:55:29;;;;;;;9.57;6.53;;;;;;;2.21;49.30;95970.41;5095204;28;20194;-78
2021/03/07 00:57:55;;;;;;;12.13;6.80;;;;;;;2.12;48.82;95966.41;5094400;28;20251;-78
2021/03/07 01:00:25;;;;;;;9.20;6.85;;;;;;;2.17;48.91;95967.09;5094792;28;20202;-78
2021/03/07 01:02:51;;;;;;;10.13;5.93;;;;;;;2.13;49.13;95965.50;5094752;28;20581;-78
2021/03/07 01:05:18;;;;;;;9.15;6.25;;;;;;;2.17;49.22;95968.84;5094585;28;20197;-78
2021/03/07 01:07:46;;;;;;;10.55;6.15;;;;;;;2.24;49.32;95972.06;5042518;28;20250;-78
2021/03/07 01:10:15;;;;;;;7.97;5.57;;;;;;;2.35;49.51;95959.59;5094583;28;20822;-78
2021/03/07 01:12:42;;;;;;;13.77;5.60;;;;;;;2.39;48.85;95956.84;5094190;28;20632;-78
2021/03/07 01:15:09;;;;;;;11.20;5.65;;;;;;;2.49;48.83;95958.19;5094883;28;20210;-78
2021/03/07 01:17:36;;;;;;;7.60;5.93;;;;;;;2.59;48.28;95957.84;5042663;28;20198;-77
2021/03/07 01:20:09;;;;;;;10.38;6.53;;;;;;;2.59;47.54;95957.84;5094552;28;20638;-77
2021/03/07 01:22:35;;;;;;;10.43;5.60;;;;;;;2.64;47.88;95953.34;5094305;28;20198;-77
2021/03/07 01:25:04;;;;;;;10.25;6.00;;;;;;;2.70;47.65;95960.91;5093962;28;20193;-77
2021/03/07 01:27:31;;;;;;;9.18;6.03;;;;;;;2.71;47.58;95960.84;5093861;28;20212;-78
2021/03/07 01:29:57;;;;;;;10.90;5.97;;;;;;;2.73;47.09;95950.41;5093813;28;20208;-77
2021/03/07 01:32:24;;;;;;;9.48;6.72;;;;;;;2.80;47.45;95952.72;5094127;28;20231;-78
2021/03/07 01:34:50;;;;;;;13.18;6.97;;;;;;;2.71;47.13;95960.00;5093718;28;20199;-78
2021/03/07 01:37:16;;;;;;;8.10;6.20;;;;;;;2.66;47.69;95954.16;5093542;28;20239;-77
2021/03/07 01:39:43;;;;;;;12.80;6.93;;;;;;;2.61;47.52;95953.47;5058327;28;20228;-77
2021/03/07 01:42:11;;;;;;;10.52;5.93;;;;;;;2.62;47.61;95952.56;5094152;28;20197;-78
2021/03/07 01:44:38;;;;;;;6.35;5.43;;;;;;;2.62;47.69;95948.22;5093495;28;20201;-77
2021/03/07 01:47:05;;;;;;;11.93;6.07;;;;;;;2.67;48.03;95946.31;5093881;28;20243;-78
2021/03/07 01:49:31;;;;;;;7.00;6.30;;;;;;;2.69;47.72;95946.25;5094110;28;20185;-77
2021/03/07 01:51:58;;;;;;;9.80;5.88;;;;;;;2.76;47.45;95929.56;5041917;28;20197;-77
2021/03/07 01:54:24;;;;;;;11.13;6.80;;;;;;;2.72;47.53;95928.00;5093611;28;20652;-78
2021/03/07 01:56:53;;;;;;;14.40;7.47;;;;;;;2.77;47.49;95926.06;5094018;28;20204;-78
2021/03/07 01:59:21;;;;;;;14.55;7.80;;;;;;;2.80;47.12;95931.97;5093515;28;20225;-77
2021/03/07 02:01:49;;;;;;;9.63;6.80;;;;;;;2.82;47.32;95924.16;5093528;28;20243;-78
2021/03/07 02:04:16;;;;;;;9.95;8.13;;;;;;;2.86;47.19;95923.13;5093732;28;20197;-77
2021/03/07 02:06:42;;;;;;;8.73;5.97;;;;;;;2.90;47.52;95927.31;5093680;28;20193;-77
2021/03/07 02:09:09;;;;;;;10.30;6.85;;;;;;;2.91;47.42;95922.97;5093757;28;20194;-77
2021/03/07 02:11:38;;;;;;;8.98;6.18;;;;;;;2.88;47.26;95926.50;5093801;28;20231;-77
2021/03/07 02:14:07;;;;;;;7.88;5.95;;;;;;;2.91;47.15;95934.19;5041277;28;20220;-77
2021/03/07 02:16:35;;;;;;;11.23;6.65;;;;;;;2.89;46.97;95927.34;5093433;28;20205;-77
2021/03/07 02:19:02;;;;;;;10.90;6.93;;;;;;;2.87;47.31;95924.81;5093185;28;20216;-78
2021/03/07 02:21:34;;;;;;;13.00;7.32;;;;;;;2.84;46.87;95929.28;5093630;28;20202;-77
2021/03/07 02:24:05;;;;;;;13.38;8.10;;;;;;;2.70;47.21;95925.47;5092911;28;20650;-78
2021/03/07 02:26:33;;;;;;;12.55;8.38;;;;;;;2.69;47.31;95923.78;5074483;28;20189;-77
2021/03/07 02:29:01;;;;;;;13.82;8.70;;;;;;;2.72;47.81;95922.81;5041074;28;20205;-78
2021/03/07 02:31:29;;;;;;;10.57;7.15;;;;;;;2.70;48.97;95915.09;5093342;28;20697;-77
2021/03/07 02:34:00;;;;;;;9.27;6.28;;;;;;;2.62;48.33;95913.72;5092740;28;20649;-77
2021/03/07 02:36:32;;;;;;;9.93;7.53;;;;;;;2.67;49.12;95914.38;5093119;28;20193;-77
2021/03/07 02:39:00;;;;;;;9.85;7.53;;;;;;;2.66;49.07;95916.13;5092944;28;20742;-77
2021/03/07 02:41:30;;;;;;;8.93;6.00;;;;;;;2.63;49.35;95918.00;5093147;28;20201;-77
2021/03/07 02:43:59;;;;;;;13.23;7.65;;;;;;;2.63;49.99;95902.44;5093341;28;20639;-77
2021/03/07 02:46:27;;;;;;;12.60;7.47;;;;;;;2.60;49.39;95902.53;5093688;28;20197;-77
2021/03/07 02:48:57;;;;;;;19.88;8.75;;;;;;;2.58;49.14;95904.34;5045685;28;20661;-77
2021/03/07 02:51:27;;;;;;;15.20;9.65;;;;;;;2.56;49.17;95912.16;5096719;28;20185;-77
2021/03/07 02:53:56;;;;;;;17.92;10.05;;;;;;;2.52;48.98;95912.34;5096894;28;20208;-77
2021/03/07 02:56:24;;;;;;;16.08;9.30;;;;;;;2.52;48.70;95905.41;5096385;28;20209;-77
2021/03/07 02:58:59;;;;;;;20.10;10.57;;;;;;;2.54;48.91;95910.53;5096414;28;20753;-78
2021/03/07 03:01:27;;;;;;;18.13;9.55;;;;;;;2.49;49.68;95910.72;5096365;28;20208;-77
2021/03/07 03:03:55;;;;;;;11.35;7.82;;;;;;;2.48;49.28;95912.47;5096759;28;20201;-77
2021/03/07 03:06:23;;;;;;;11.10;7.82;;;;;;;2.45;49.44;95907.38;5096372;28;20188;-77
2021/03/07 03:08:52;;;;;;;14.32;8.35;;;;;;;2.43;49.24;95910.94;5096202;28;20201;-78
2021/03/07 03:11:21;;;;;;;15.18;8.55;;;;;;;2.37;49.11;95911.16;5044203;28;20233;-77
2021/03/07 03:13:49;;;;;;;15.75;8.82;;;;;;;2.26;49.67;95911.53;5096058;28;20199;-77
2021/03/07 03:16:17;;;;;;;15.60;7.97;;;;;;;2.17;49.74;95910.13;5096570;28;20190;-77
2021/03/07 03:18:45;;;;;;;12.10;8.25;;;;;;;2.22;50.12;95906.53;5095952;28;20278;-77
2021/03/07 03:21:13;;;;;;;12.35;8.57;;;;;;;2.16;50.36;95907.59;5095997;28;20204;-77
2021/03/07 03:23:41;;;;;;;13.93;7.63;;;;;;;2.16;50.09;95905.00;5096206;28;20454;-77
2021/03/07 03:26:08;;;;;;;17.23;8.23;;;;;;;2.16;50.42;95905.00;5096062;28;20197;-77
2021/03/07 03:28:35;;;;;;;17.40;7.82;;;;;;;2.06;50.71;95896.75;5096227;28;20274;-77
2021/03/07 03:31:02;;;;;;;12.55;7.55;;;;;;;2.04;50.41;95901.13;5096383;28;20207;-77
2021/03/07 03:33:29;;;;;;;13.02;8.07;;;;;;;2.04;50.95;95902.88;5096498;28;20233;-78
2021/03/07 03:35:56;;;;;;;14.55;8.75;;;;;;;2.00;51.23;95896.94;5096183;28;20197;-77
2021/03/07 03:38:30;;;;;;;9.85;7.97;;;;;;;1.97;50.96;95906.56;5096051;28;20214;-78
2021/03/07 03:40:58;;;;;;;15.05;7.32;;;;;;;1.98;51.26;95906.50;5096537;28;20271;-78
2021/03/07 03:43:25;;;;;;;15.48;7.70;;;;;;;1.93;51.90;95915.31;5095693;28;20654;-77
2021/03/07 03:45:56;;;;;;;12.30;6.78;;;;;;;1.86;52.39;95915.53;5096101;28;20213;-77
2021/03/07 03:48:26;;;;;;;13.35;7.93;;;;;;;1.81;52.57;95916.59;5095552;28;20562;-78
2021/03/07 03:50:54;;;;;;;10.77;6.45;;;;;;;1.79;52.55;95919.25;5095843;28;20189;-78
2021/03/07 03:53:22;;;;;;;17.25;7.28;;;;;;;1.76;52.59;95923.69;5060138;28;20200;-78
2021/03/07 03:55:50;;;;;;;12.48;6.93;;;;;;;1.72;52.48;95916.91;5096191;28;20182;-78
2021/03/07 03:58:21;;;;;;;12.88;7.28;;;;;;;1.69;53.04;95911.81;5095378;28;20228;-78
2021/03/07 04:00:49;;;;;;;13.52;6.57;;;;;;;1.69;52.50;95907.50;5096405;28;20279;-78
2021/03/07 04:03:18;;;;;;;12.52;7.80;;;;;;;1.67;53.26;95904.13;5095578;28;20194;-78
2021/03/07 04:05:47;;;;;;;12.05;8.13;;;;;;;1.70;52.55;95909.19;5096141;28;20197;-78
2021/03/07 04:08:15;;;;;;;11.45;7.57;;;;;;;1.68;52.91;95908.41;5095360;28;20201;-79
2021/03/07 04:10:43;;;;;;;9.25;6.85;;;;;;;1.57;53.18;95891.56;5095672;28;20619;-78
2021/03/07 04:13:10;;;;;;;10.38;7.07;;;;;;;1.62;53.10;95905.19;5095819;28;20212;-78
2021/03/07 04:15:39;;;;;;;9.82;7.35;;;;;;;1.66;52.49;95906.75;5094752;28;20288;-77
2021/03/07 04:18:07;;;;;;;13.60;6.72;;;;;;;1.65;52.43;95916.25;5094561;28;20240;-77
2021/03/07 04:20:34;;;;;;;12.88;6.95;;;;;;;1.60;52.75;95918.16;5094891;28;20208;-77
2021/03/07 04:23:01;;;;;;;13.13;7.22;;;;;;;1.51;52.13;95915.88;5094670;28;20209;-78
2021/03/07 04:25:28;;;;;;;8.13;7.32;;;;;;;1.41;52.45;95911.91;5094642;28;20193;-78
2021/03/07 04:27:55;;;;;;;13.63;9.15;;;;;;;1.40;52.69;95910.19;5094593;28;20209;-78
2021/03/07 04:30:23;;;;;;;13.70;7.60;;;;;;;1.34;53.08;95905.25;5058887;28;20197;-78
2021/03/07 04:32:51;;;;;;;9.10;8.20;;;;;;;1.27;53.70;95901.16;5094972;28;20252;-77
2021/03/07 04:35:18;;;;;;;11.35;7.35;;;;;;;1.28;53.63;95908.03;5042808;28;20194;-78
2021/03/07 04:37:44;;;;;;;10.50;7.13;;;;;;;1.27;53.93;95893.41;5094591;28;20201;-77
2021/03/07 04:40:12;;;;;;;9.10;7.60;;;;;;;1.24;54.35;95899.53;5094832;28;20275;-78
2021/03/07 04:42:41;;;;;;;11.80;7.38;;;;;;;1.20;54.67;95900.53;5059450;28;20202;-78
2021/03/07 04:45:10;;;;;;;14.25;7.80;;;;;;;1.19;54.86;95896.25;5094870;28;20192;-78
2021/03/07 04:47:36;;;;;;;12.07;8.13;;;;;;;1.22;54.87;95912.50;5094958;28;20584;-77
2021/03/07 04:50:03;;;;;;;20.50;11.85;;;;;;;1.08;55.39;95912.09;5095040;28;20192;-79
2021/03/07 04:52:29;;;;;;;23.80;13.65;;;;;;;1.09;55.86;95910.34;5093644;28;20456;-77
2021/03/07 04:54:56;;;;;;;14.00;9.45;;;;;;;1.10;55.17;95907.72;5094678;28;20205;-77
2021/03/07 04:57:36;;;;;;;13.07;8.30;;;;;;;1.07;55.37;95907.81;5094431;28;20214;-78
2021/03/07 05:00:07;;;;;;;11.10;7.63;;;;;;;1.08;55.47;95919.84;5094798;28;20220;-80
2021/03/07 05:02:33;;;;;;;12.15;8.90;;;;;;;1.06;55.12;95913.88;5094817;28;20197;-78
2021/03/07 05:04:59;;;;;;;18.80;9.43;;;;;;;1.04;55.28;95912.22;5094049;28;20200;-77
2021/03/07 05:07:26;;;;;;;12.70;8.02;;;;;;;1.13;57.08;95912.78;5058762;28;20205;-77
2021/03/07 05:09:52;;;;;;;16.38;9.82;;;;;;;1.15;59.63;95907.56;5093855;28;20209;-78
2021/03/07 05:12:19;;;;;;;14.18;8.77;;;;;;;1.19;57.90;95912.63;5094125;28;20197;-77
2021/03/07 05:14:45;;;;;;;12.23;7.57;;;;;;;1.13;55.92;95911.94;5094036;28;20556;-77
2021/03/07 05:17:12;;;;;;;13.57;8.40;;;;;;;1.15;55.48;95915.31;5094068;28;20221;-77
2021/03/07 05:19:39;;;;;;;11.35;7.72;;;;;;;1.12;55.97;95926.59;5093579;28;20255;-78
2021/03/07 05:22:05;;;;;;;12.10;8.68;;;;;;;1.13;55.55;95924.84;5092879;28;20213;-77
2021/03/07 05:24:31;;;;;;;9.55;7.10;;;;;;;1.22;55.50;95925.44;5093421;28;20259;-77
2021/03/07 05:27:05;;;;;;;12.55;8.10;;;;;;;1.30;55.40;95929.50;5093739;28;20657;-77
2021/03/07 05:29:32;;;;;;;12.13;7.00;;;;;;;1.55;55.12;95922.66;5093966;28;20290;-76
2021/03/07 05:31:59;;;;;;;15.25;8.93;;;;;;;2.10;54.10;95931.97;5094154;28;20240;-77
2021/03/07 05:34:26;;;;;;;20.02;8.18;;;;;;;3.07;50.93;95929.25;5094202;28;20617;-77
2021/03/07 05:36:53;;;;;;;13.40;8.40;;;;;;;3.95;48.21;95924.78;5094398;28;20653;-77
2021/03/07 05:39:19;;;;;;;19.47;8.53;;;;;;;4.82;45.68;95916.59;5094051;28;20607;-78
2021/03/07 05:41:46;;;;;;;19.20;8.87;;;;;;;5.69;44.61;95922.03;5094343;28;20443;-78
2021/03/07 05:44:13;;;;;;;18.70;9.40;;;;;;;6.44;42.62;95911.28;5059555;28;20447;-78
2021/03/07 05:46:39;;;;;;;18.93;8.60;;;;;;;7.07;41.32;95916.59;5093839;28;20439;-78
2021/03/07 05:49:06;;;;;;;17.57;10.43;;;;;;;7.71;39.47;95923.44;5093957;28;20447;-77
2021/03/07 05:51:33;;;;;;;19.23;10.20;;;;;;;8.45;37.88;95914.81;5093922;28;20435;-77
2021/03/07 05:54:00;;;;;;;22.97;10.70;;;;;;;9.03;36.52;95914.69;5094301;28;20443;-78
2021/03/07 05:56:27;;;;;;;23.17;12.10;;;;;;;9.41;35.79;95912.28;5093810;28;20497;-78
2021/03/07 05:58:56;;;;;;;20.63;12.17;;;;;;;9.69;35.80;95916.59;5094224;28;20530;-78
2021/03/07 06:01:23;;;;;;;15.70;11.97;;;;;;;9.85;33.95;95914.66;5093509;28;20430;-79
2021/03/07 06:03:49;;;;;;;19.97;10.83;;;;;;;10.00;34.28;95915.41;5094502;28;20831;-79
2021/03/07 06:06:16;;;;;;;17.33;11.03;;;;;;;10.15;40.84;95905.72;5093350;28;20510;-80
2021/03/07 06:08:43;;;;;;;16.07;10.47;;;;;;;10.36;36.18;95909.53;5093718;28;20451;-79
2021/03/07 06:11:30;;;;;;;16.60;11.43;;;;;;;10.41;33.71;95902.19;5093506;28;20467;-79
2021/03/07 06:13:56;;;;;;;22.67;12.77;;;;;;;10.53;33.37;95898.72;5094062;28;20442;-79
2021/03/07 06:16:23;;;;;;;23.00;13.03;;;;;;;10.57;33.10;95893.28;5093658;28;20440;-80
2021/03/07 06:18:50;;;;;;;21.87;13.27;;;;;;;10.48;33.83;95898.22;5041817;28;20478;-80
2021/03/07 06:21:30;;;;;;;17.83;12.10;;;;;;;10.21;33.35;95907.94;5093609;28;20461;-80
2021/03/07 06:23:59;;;;;;;21.50;11.87;;;;;;;10.20;34.02;95899.22;5097552;28;20437;-80
2021/03/07 06:26:26;;;;;;;17.57;14.17;;;;;;;9.62;34.57;95904.81;5097315;28;20436;-80
2021/03/07 06:29:12;;;;;;;25.00;13.77;;;;;;;9.11;35.37;95901.97;5097701;28;20460;-80
2021/03/07 06:31:40;;;;;;;16.97;12.03;;;;;;;8.73;36.23;95909.59;5097673;28;20436;-79
2021/03/07 06:34:07;;;;;;;20.03;12.37;;;;;;;8.52;36.77;95903.88;5097535;28;20478;-80
2021/03/07 06:36:33;;;;;;;14.63;11.40;;;;;;;8.02;37.63;95906.84;5097148;28;20542;-79
2021/03/07 06:39:02;;;;;;;19.20;12.50;;;;;;;7.83;38.13;95908.84;5097299;28;20475;-81
2021/03/07 06:41:30;;;;;;;15.13;12.10;;;;;;;7.20;39.42;95899.31;5096708;28;20481;-80
2021/03/07 06:44:08;;;;;;;21.70;14.57;;;;;;;7.01;40.81;95909.09;5097175;28;20834;-80
2021/03/07 06:46:37;;;;;;;15.97;12.17;;;;;;;6.41;41.14;95906.25;5097832;28;20443;-79
2021/03/07 06:49:04;;;;;;;17.23;12.03;;;;;;;6.69;41.26;95903.84;5097374;28;20444;-80
2021/03/07 06:51:31;;;;;;;15.80;10.93;;;;;;;6.78;41.23;95902.50;5097300;28;20443;-80
2021/03/07 06:53:59;;;;;;;16.57;11.03;;;;;;;6.42;41.46;95895.72;5097187;28;20439;-79
2021/03/07 06:56:43;;;;;;;16.37;11.33;;;;;;;6.24;42.49;95909.69;5093478;28;20600;-80
2021/03/07 06:59:11;;;;;;;15.40;11.03;;;;;;;6.26;42.70;95901.81;5095826;28;20483;-81
2021/03/07 07:01:41;;;;;;;17.23;12.00;;;;;;;5.79;43.39;95907.66;5097403;28;20432;-82
2021/03/07 07:04:07;;;;;;;15.77;10.00;;;;;;;5.52;44.64;95897.66;5097329;28;20475;-81
2021/03/07 07:06:35;;;;;;;17.37;10.97;;;;;;;4.83;45.87;95900.06;5094215;28;20467;-80
2021/03/07 07:09:02;;;;;;;19.93;11.03;;;;;;;4.95;46.13;95902.13;5088193;28;20466;-80
2021/03/07 07:11:28;;;;;;;16.60;10.97;;;;;;;4.96;46.67;95900.38;5089612;28;20455;-81
2021/03/07 07:13:55;;;;;;;20.80;11.27;;;;;;;5.37;47.74;95895.78;5096831;28;20967;-82
2021/03/07 07:16:23;;;;;;;14.03;10.60;;;;;;;5.67;46.08;95898.66;5096862;28;20451;-81
2021/03/07 07:18:49;;;;;;;15.27;10.50;;;;;;;5.98;45.13;95884.13;5096177;28;20499;-80
2021/03/07 07:21:17;;;;;;;14.80;11.60;;;;;;;5.92;44.14;95892.25;5096303;28;20444;-81
2021/03/07 07:23:46;;;;;;;17.23;10.80;;;;;;;6.12;44.38;95897.31;5096799;28;20435;-81
2021/03/07 07:26:13;;;;;;;12.20;9.67;;;;;;;5.60;44.77;95898.13;5095881;28;20424;-82
2021/03/07 07:28:40;;;;;;;18.00;11.33;;;;;;;5.37;45.31;95890.59;5096297;28;20459;-82
2021/03/07 07:31:11;;;;;;;20.30;11.10;;;;;;;5.65;45.32;95895.28;5044470;28;20492;-81
2021/03/07 07:33:48;;;;;;;17.10;9.93;;;;;;;5.64;43.25;95895.38;5074954;28;20468;-82
2021/03/07 07:36:25;;;;;;;11.30;8.87;;;;;;;5.46;41.78;95877.13;5088915;28;20503;-81
2021/03/07 07:38:54;;;;;;;13.50;8.73;;;;;;;5.66;43.31;95885.72;5096070;28;20475;-82
2021/03/07 07:41:28;;;;;;;19.30;8.43;;;;;;;5.86;42.96;95875.16;5096216;28;20427;-82
2021/03/07 07:43:54;;;;;;;14.43;8.80;;;;;;;5.84;41.65;95877.00;5095534;28;20431;-82
2021/03/07 07:46:22;;;;;;;13.33;9.47;;;;;;;5.86;41.27;95880.38;5095552;28;20436;-82
2021/03/07 07:48:49;;;;;;;11.63;8.23;;;;;;;6.18;40.80;95870.94;5095173;28;20432;-81
2021/03/07 07:51:36;;;;;;;15.10;9.63;;;;;;;6.72;40.94;95868.94;5095828;28;20444;-81
2021/03/07 07:54:05;;;;;;;15.93;10.23;;;;;;;7.04;40.32;95872.41;5075079;28;20237;-81
2021/03/07 07:57:40;;;;;;;12.60;10.30;;;;;;;6.79;39.57;95855.47;5086169;28;20444;-81
2021/03/07 08:00:09;;;;;;;16.73;9.10;;;;;;;6.82;39.61;95855.31;5069363;28;21327;-82
2021/03/07 08:02:56;;;;;;;13.90;9.00;;;;;;;6.99;40.70;95853.56;5056727;28;20444;-81
2021/03/07 08:05:46;;;;;;;12.40;8.77;;;;;;;6.87;38.89;95847.22;5079248;28;20795;-81
2021/03/07 08:08:15;;;;;;;14.40;8.20;;;;;;;7.11;38.15;95842.44;5084454;28;20435;-81
2021/03/07 08:10:44;;;;;;;14.20;8.53;;;;;;;6.71;38.31;95852.47;5095020;28;20447;-82
2021/03/07 08:13:11;;;;;;;12.40;9.13;;;;;;;7.23;39.26;95849.59;5089918;28;20539;-82
2021/03/07 08:15:50;;;;;;;14.30;9.80;;;;;;;7.51;37.99;95848.00;5076297;28;20455;-83
2021/03/07 08:18:19;;;;;;;12.63;8.43;;;;;;;6.72;38.78;95835.88;5091864;28;20444;-83
2021/03/07 08:21:05;;;;;;;11.27;7.73;;;;;;;7.21;37.95;95840.97;5095448;28;20447;-80
2021/03/07 08:24:09;;;;;;;14.53;8.93;;;;;;;7.36;38.18;95834.91;5095804;28;20439;-84
2021/03/07 08:27:00;;;;;;;12.70;8.40;;;;;;;7.24;38.86;95826.94;5075039;28;20932;-82
2021/03/07 08:29:40;;;;;;;15.00;9.33;;;;;;;6.98;38.74;95818.78;5089940;28;20955;-82
2021/03/07 08:32:36;;;;;;;15.50;9.20;;;;;;;6.84;39.73;95816.09;5094464;28;20454;-83
2021/03/07 08:35:11;;;;;;;11.70;9.10;;;;;;;6.29;41.62;95818.25;5012316;28;20498;-84
2021/03/07 08:37:38;;;;;;;15.37;10.00;;;;;;;6.40;41.53;95808.09;5012934;28;20446;-83
2021/03/07 08:40:33;;;;;;;15.60;9.47;;;;;;;6.75;41.64;95804.41;4964212;28;20483;-83
2021/03/07 08:43:33;;;;;;;12.90;10.10;;;;;;;6.98;41.30;95807.53;5012979;28;20803;-83
2021/03/07 08:46:00;;;;;;;12.50;9.00;;;;;;;7.06;40.50;95807.91;5013195;28;20551;-83
2021/03/07 08:48:27;;;;;;;11.50;7.53;;;;;;;7.01;39.73;95786.47;5013455;28;20443;-83
2021/03/07 08:50:55;;;;;;;12.27;8.73;;;;;;;6.89;40.63;95793.19;5013920;28;20515;-83
2021/03/07 08:53:23;;;;;;;11.17;7.40;;;;;;;6.61;39.45;95787.81;5014238;28;20435;-83
2021/03/07 08:55:50;;;;;;;11.63;8.30;;;;;;;6.02;40.07;95784.91;5014386;28;21076;-83
2021/03/07 08:58:17;;;;;;;13.00;8.40;;;;;;;5.47;42.74;95785.09;5015135;28;20439;-82
2021/03/07 09:00:45;;;;;;;12.93;9.07;;;;;;;5.95;42.52;95774.88;5013683;28;20562;-83
2021/03/07 09:03:13;;;;;;;10.30;8.80;;;;;;;5.99;41.49;95769.44;5017069;28;20985;-83
2021/03/07 09:05:39;;;;;;;10.03;7.40;;;;;;;6.34;41.18;95762.31;5015788;28;20455;-84
2021/03/07 09:08:07;;;;;;;9.73;8.37;;;;;;;6.60;40.25;95767.88;5015370;28;20435;-83
2021/03/07 09:10:37;;;;;;;10.83;8.83;;;;;;;6.39;39.75;95762.09;5050690;28;20439;-84
2021/03/07 09:13:12;;;;;;;10.07;7.47;;;;;;;6.47;40.95;95749.47;5098338;28;20507;-83
2021/03/07 09:15:40;;;;;;;11.77;8.23;;;;;;;6.85;40.54;95747.34;5095890;28;20439;-83
2021/03/07 09:18:07;;;;;;;8.67;7.73;;;;;;;6.47;40.84;95754.69;5060572;28;20508;-80
2021/03/07 09:20:42;;;;;;;13.20;8.47;;;;;;;6.86;40.15;95745.56;5095103;28;20488;-82
2021/03/07 09:26:31;;;;;;;11.80;7.47;;;;;;;7.18;39.69;95731.53;5073078;28;20428;-81
2021/03/07 09:28:57;;;;;;;12.50;7.77;;;;;;;7.25;40.34;95725.03;5038581;28;20453;-81
2021/03/07 09:31:25;;;;;;;12.93;8.23;;;;;;;7.37;40.08;95726.91;5073903;28;20849;-83
2021/03/07 09:33:53;;;;;;;10.70;8.07;;;;;;;7.44;40.91;95719.56;5074326;28;20483;-80
2021/03/07 09:36:22;;;;;;;13.37;8.17;;;;;;;7.54;40.43;95717.25;5074436;28;20448;-81
2021/03/07 09:38:52;;;;;;;16.37;8.27;;;;;;;7.69;40.84;95698.88;5074031;28;20481;-79
2021/03/07 09:41:31;;;;;;;13.10;9.10;;;;;;;7.93;40.52;95703.56;5074053;28;20444;-82
2021/03/07 09:43:59;;;;;;;12.10;8.70;;;;;;;7.83;40.20;95694.59;5073733;28;20829;-81
2021/03/07 09:46:27;;;;;;;15.30;8.77;;;;;;;7.65;39.89;95693.94;5074002;28;20460;-81
2021/03/07 09:48:59;;;;;;;10.20;7.73;;;;;;;7.57;41.36;95691.78;5074270;28;20440;-80
2021/03/07 09:51:30;;;;;;;11.83;9.10;;;;;;;7.61;41.67;95680.22;5073777;28;20456;-79
2021/03/07 09:53:57;;;;;;;27.03;12.80;;;;;;;7.44;41.42;95685.63;5075053;28;20437;-88
2021/03/07 09:56:29;;;;;;;11.20;9.07;;;;;;;7.27;41.83;95678.81;5074441;28;20459;-81
2021/03/07 09:59:22;;;;;;;14.87;10.27;;;;;;;7.35;42.24;95673.13;5077905;28;20472;-79
2021/03/07 10:01:51;;;;;;;12.30;9.00;;;;;;;7.25;41.67;95678.06;4996041;28;20451;-80
2021/03/07 10:04:33;;;;;;;20.33;9.20;;;;;;;7.17;42.81;95685.47;4995916;28;21083;-80
2021/03/07 10:07:00;;;;;;;18.17;10.37;;;;;;;7.24;42.48;95673.75;4995975;28;20450;-80
2021/03/07 10:09:27;;;;;;;13.83;9.43;;;;;;;7.21;43.42;95657.41;4995945;28;20443;-80
2021/03/07 10:11:58;;;;;;;9.87;8.47;;;;;;;7.35;42.60;95665.28;4995804;28;20444;-80
2021/03/07 10:14:27;;;;;;;14.37;9.07;;;;;;;7.45;43.15;95651.56;4996078;28;20511;-84
2021/03/07 10:16:53;;;;;;;12.73;7.87;;;;;;;7.05;42.57;95660.94;4996120;28;20860;-80
2021/03/07 10:19:21;;;;;;;12.43;7.77;;;;;;;7.12;43.97;95651.81;4996467;28;20545;-79
2021/03/07 10:21:54;;;;;;;11.60;8.00;;;;;;;7.15;43.14;95640.34;4996875;28;20531;-83
2021/03/07 10:24:21;;;;;;;12.80;8.77;;;;;;;7.38;43.48;95634.59;4999177;28;21076;-79
2021/03/07 10:26:49;;;;;;;17.23;10.10;;;;;;;7.59;43.47;95631.63;4996189;28;20428;-79
2021/03/07 10:29:24;;;;;;;14.97;8.80;;;;;;;7.56;42.81;95624.00;4995812;28;20589;-79
2021/03/07 10:32:09;;;;;;;13.53;8.63;;;;;;;7.46;42.76;95621.91;4995768;28;20448;-80
2021/03/07 10:34:37;;;;;;;16.33;9.83;;;;;;;7.18;45.13;95610.63;4963728;28;20448;-79
2021/03/07 10:37:05;;;;;;;15.43;10.00;;;;;;;7.15;43.98;95609.03;4996833;28;20538;-79
2021/03/07 10:39:32;;;;;;;15.77;9.53;;;;;;;7.32;43.95;95608.88;5077722;28;20840;-80
2021/03/07 10:42:10;;;;;;;13.70;9.73;;;;;;;7.29;44.27;95598.63;5077024;28;20451;-79
2021/03/07 10:44:39;;;;;;;12.87;8.07;;;;;;;7.34;44.19;95591.34;5077019;28;20825;-80
2021/03/07 10:47:20;;;;;;;16.43;10.23;;;;;;;7.53;42.98;95591.06;5077395;28;20444;-78
2021/03/07 10:49:48;;;;;;;15.70;9.93;;;;;;;7.22;44.23;95579.03;5042117;28;20444;-79
2021/03/07 10:52:15;;;;;;;13.37;9.10;;;;;;;7.40;45.07;95575.31;5077237;28;20440;-80
2021/03/07 10:54:41;;;;;;;14.00;9.63;;;;;;;7.52;44.82;95567.63;5076605;28;20444;-80
2021/03/07 10:57:10;;;;;;;11.67;10.00;;;;;;;7.63;44.82;95557.38;5076945;28;20444;-79
2021/03/07 10:59:37;;;;;;;12.77;8.63;;;;;;;7.64;44.49;95551.22;5076251;28;20486;-80
2021/03/07 11:02:06;;;;;;;13.63;9.17;;;;;;;7.77;44.26;95549.50;5076533;28;20437;-78
2021/03/07 11:04:32;;;;;;;13.70;9.13;;;;;;;7.87;44.81;95542.78;5026386;28;20542;-82
2021/03/07 11:06:59;;;;;;;11.00;8.73;;;;;;;7.80;45.21;95541.47;5077197;28;20437;-80
2021/03/07 11:09:25;;;;;;;12.90;10.07;;;;;;;7.44;45.19;95523.72;5085019;28;20451;-82
2021/03/07 11:11:52;;;;;;;14.83;9.57;;;;;;;7.62;45.57;95527.81;5097177;28;20984;-82
2021/03/07 11:14:18;;;;;;;18.33;11.00;;;;;;;7.50;45.23;95530.34;5097637;28;20463;-81
2021/03/07 11:16:46;;;;;;;13.20;10.03;;;;;;;7.42;45.75;95523.81;5061136;28;20436;-81
2021/03/07 11:19:12;;;;;;;22.27;10.20;;;;;;;7.29;46.17;95522.94;5096296;28;20483;-80
2021/03/07 11:21:39;;;;;;;13.20;9.27;;;;;;;7.48;46.32;95514.75;5096378;28;20522;-81
2021/03/07 11:24:06;;;;;;;18.27;11.23;;;;;;;7.66;46.49;95508.41;5096396;28;20940;-81
2021/03/07 11:26:33;;;;;;;13.83;9.40;;;;;;;7.79;45.79;95495.38;5045141;28;20460;-81
2021/03/07 11:28:59;;;;;;;13.80;8.97;;;;;;;8.04;46.13;95495.47;5096718;28;21003;-81
2021/03/07 11:31:25;;;;;;;13.23;9.03;;;;;;;8.04;44.74;95492.84;5096545;28;20436;-82
2021/03/07 11:33:53;;;;;;;26.60;10.13;;;;;;;7.72;44.99;95475.81;5062250;28;20468;-82
2021/03/07 11:36:19;;;;;;;16.13;10.00;;;;;;;7.91;46.04;95486.75;5097705;28;20475;-82
2021/03/07 11:38:46;;;;;;;12.77;9.17;;;;;;;8.01;46.04;95472.16;5097053;28;20519;-81
2021/03/07 11:41:12;;;;;;;16.70;9.97;;;;;;;7.93;46.09;95457.91;5097118;28;20447;-83
2021/03/07 11:43:38;;;;;;;13.05;9.45;;;;;;;8.08;45.62;95457.72;5095920;28;20497;-82
2021/03/07 11:46:05;;;;;;;20.57;12.17;;;;;;;8.08;45.85;95452.50;5096381;28;20563;-81